createdAt,value
2023-03-20T00:02:22.101Z,12.50
2023-03-20T00:04:49.635Z,12.50
2023-03-20T00:07:17.113Z,12.60
2023-03-20T00:09:44.411Z,12.50
2023-03-20T00:12:18.203Z,12.50
2023-03-20T00:14:45.706Z,12.50
2023-03-20T00:17:20.353Z,12.40
2023-03-20T00:19:47.974Z,12.40
2023-03-20T00:22:15.536Z,12.40
2023-03-20T00:24:43.087Z,12.40
2023-03-20T00:27:16.366Z,12.40
2023-03-20T00:29:44.185Z,12.40
2023-03-20T00:32:15.288Z,12.40
2023-03-20T00:34:43.283Z,12.40
2023-03-20T00:37:14.435Z,12.40
2023-03-20T00:39:42.140Z,12.30
2023-03-20T00:42:22.356Z,12.30
2023-03-20T00:44:55.910Z,12.20
2023-03-20T00:47:27.402Z,12.20
2023-03-20T00:49:56.168Z,12.20
2023-03-20T00:52:24.602Z,12.20
2023-03-20T00:54:52.259Z,12.20
2023-03-20T00:57:24.325Z,12.20
2023-03-20T00:59:57.811Z,12.10
2023-03-20T01:02:29.253Z,12.10
2023-03-20T01:04:57.069Z,12.10
2023-03-20T01:07:26.766Z,12.00
2023-03-20T01:09:54.181Z,12.00
2023-03-20T01:12:21.548Z,11.90
2023-03-20T01:14:57.695Z,11.90
2023-03-20T01:17:27.276Z,11.90
2023-03-20T01:19:54.767Z,11.90
2023-03-20T01:22:22.379Z,11.80
2023-03-20T01:24:49.692Z,11.80
2023-03-20T01:27:20.835Z,11.70
2023-03-20T01:29:48.382Z,11.70
2023-03-20T01:32:18.626Z,11.70
2023-03-20T01:34:51.473Z,11.70
2023-03-20T01:37:26.334Z,11.90
2023-03-20T01:39:56.056Z,11.90
2023-03-20T01:42:23.524Z,11.90
2023-03-20T01:44:51.385Z,11.90
2023-03-20T01:47:23.799Z,11.90
2023-03-20T01:50:19.084Z,11.80
2023-03-20T01:52:52.335Z,11.80
2023-03-20T01:55:21.127Z,11.70
2023-03-20T01:57:58.134Z,11.70
2023-03-20T02:00:25.924Z,11.70
2023-03-20T02:02:55.120Z,11.70
2023-03-20T02:05:40.949Z,11.70
2023-03-20T02:08:28.948Z,11.60
2023-03-20T02:11:01.697Z,11.60
2023-03-20T02:13:33.061Z,11.60
2023-03-20T02:16:08.320Z,11.60
2023-03-20T02:19:02.455Z,11.60
2023-03-20T02:22:04.649Z,11.60
2023-03-20T02:24:35.822Z,11.60
2023-03-20T02:27:27.366Z,11.60
2023-03-20T02:30:10.102Z,11.60
2023-03-20T02:33:03.315Z,11.60
2023-03-20T02:35:46.027Z,11.50
2023-03-20T02:38:19.446Z,11.40
2023-03-20T02:41:09.637Z,11.40
2023-03-20T02:44:02.446Z,11.30
2023-03-20T02:47:13.004Z,11.30
2023-03-20T02:49:59.949Z,11.30
2023-03-20T02:52:33.751Z,11.30
2023-03-20T02:55:12.941Z,11.20
2023-03-20T02:57:46.582Z,11.20
2023-03-20T03:00:27.197Z,11.30
2023-03-20T03:03:12.210Z,11.20
2023-03-20T03:05:53.467Z,11.20
2023-03-20T03:08:23.978Z,11.20
2023-03-20T03:11:06.526Z,11.30
2023-03-20T03:13:38.769Z,11.30
2023-03-20T03:16:24.402Z,11.30
2023-03-20T03:19:08.050Z,11.30
2023-03-20T03:21:41.727Z,11.30
2023-03-20T03:24:41.737Z,11.30
2023-03-20T03:27:51.366Z,11.30
2023-03-20T03:30:26.197Z,11.30
2023-03-20T03:33:21.018Z,11.20
2023-03-20T03:35:51.513Z,11.20
2023-03-20T03:39:04.502Z,11.30
2023-03-20T03:41:46.799Z,11.30
2023-03-20T03:44:23.428Z,11.30
2023-03-20T03:47:17.055Z,11.30
2023-03-20T03:49:51.264Z,11.40
2023-03-20T03:52:22.848Z,11.40
2023-03-20T03:55:01.052Z,11.40
2023-03-20T03:57:36.839Z,11.40
2023-03-20T04:00:09.168Z,11.30
2023-03-20T04:02:47.969Z,11.20
2023-03-20T04:05:17.740Z,11.20
2023-03-20T04:07:46.822Z,11.10
2023-03-20T04:10:15.408Z,11.10
2023-03-20T04:12:44.655Z,11.00
2023-03-20T04:15:14.048Z,11.00
2023-03-20T04:17:42.537Z,10.90
2023-03-20T04:20:12.472Z,10.80
2023-03-20T04:22:40.748Z,10.80
2023-03-20T04:25:23.746Z,10.70
2023-03-20T04:27:54.155Z,10.60
2023-03-20T04:30:40.185Z,10.60
2023-03-20T04:33:13.552Z,10.50
2023-03-20T04:35:58.472Z,10.50
2023-03-20T04:38:26.437Z,10.40
2023-03-20T04:40:55.061Z,10.40
2023-03-20T04:43:22.362Z,10.40
2023-03-20T04:45:49.849Z,10.40
2023-03-20T04:48:17.098Z,10.40
2023-03-20T04:50:48.513Z,10.40
2023-03-20T04:53:19.730Z,10.30
2023-03-20T04:55:51.312Z,10.40
2023-03-20T04:58:19.738Z,10.40
2023-03-20T05:00:47.326Z,10.40
2023-03-20T05:03:14.669Z,10.40
2023-03-20T05:05:42.222Z,10.40
2023-03-20T05:08:09.917Z,10.40
2023-03-20T05:10:38.981Z,10.40
2023-03-20T05:13:15.490Z,10.50
2023-03-20T05:15:53.976Z,10.60
2023-03-20T05:18:47.687Z,10.50
2023-03-20T05:21:37.492Z,10.60
2023-03-20T05:24:23.402Z,10.60
2023-03-20T05:27:05.416Z,10.60
2023-03-20T05:29:48.842Z,10.70
2023-03-20T05:32:43.982Z,10.80
2023-03-20T05:35:31.494Z,10.80
2023-03-20T05:38:15.192Z,10.80
2023-03-20T05:41:01.081Z,10.90
2023-03-20T05:43:48.683Z,11.00
2023-03-20T05:46:36.442Z,11.10
2023-03-20T05:49:26.519Z,11.20
2023-03-20T05:52:23.589Z,11.20
2023-03-20T05:55:23.172Z,11.30
2023-03-20T05:58:13.715Z,11.40
2023-03-20T06:00:47.116Z,11.50
2023-03-20T06:03:33.246Z,11.50
2023-03-20T06:06:16.615Z,11.60
2023-03-20T06:08:49.029Z,11.70
2023-03-20T06:11:17.086Z,11.80
2023-03-20T06:13:45.079Z,11.90
2023-03-20T06:16:13.293Z,12.00
2023-03-20T06:18:40.786Z,12.00
2023-03-20T06:21:09.763Z,12.10
2023-03-20T06:23:37.043Z,12.10
2023-03-20T06:26:05.385Z,12.20
2023-03-20T06:28:45.039Z,12.20
2023-03-20T06:31:12.859Z,12.20
2023-03-20T06:33:41.137Z,12.20
2023-03-20T06:36:09.997Z,12.20
2023-03-20T06:38:37.974Z,12.30
2023-03-20T06:41:13.568Z,12.30
2023-03-20T06:43:46.936Z,12.30
2023-03-20T06:46:14.719Z,12.40
2023-03-20T06:48:42.111Z,12.40
2023-03-20T06:51:10.255Z,12.50
2023-03-20T06:53:48.805Z,12.50
2023-03-20T06:56:20.977Z,12.60
2023-03-20T06:58:48.427Z,12.70
2023-03-20T07:01:17.945Z,12.70
2023-03-20T07:03:45.366Z,12.80
2023-03-20T07:06:14.038Z,12.80
2023-03-20T07:08:42.431Z,12.80
2023-03-20T07:11:12.709Z,12.90
2023-03-20T07:13:40.554Z,12.90
2023-03-20T07:16:19.119Z,12.90
2023-03-20T07:18:47.241Z,13.00
2023-03-20T07:21:20.928Z,13.00
2023-03-20T07:23:48.335Z,13.00
2023-03-20T07:26:15.770Z,12.90
2023-03-20T07:28:43.201Z,12.90
2023-03-20T07:31:27.074Z,12.80
2023-03-20T07:34:03.863Z,12.70
2023-03-20T07:36:35.198Z,12.70
2023-03-20T07:39:02.485Z,12.70
2023-03-20T07:41:31.727Z,12.80
2023-03-20T07:44:10.697Z,12.90
2023-03-20T07:46:53.673Z,12.90
2023-03-20T07:49:23.655Z,13.00
2023-03-20T07:51:51.503Z,13.20
2023-03-20T07:54:18.846Z,13.40
2023-03-20T07:56:46.435Z,13.50
2023-03-20T07:59:14.686Z,13.60
2023-03-20T08:01:42.488Z,13.70
2023-03-20T08:04:10.371Z,13.80
2023-03-20T08:06:39.723Z,14.00
2023-03-20T08:09:07.337Z,14.20
2023-03-20T08:11:35.004Z,14.40
2023-03-20T08:14:02.404Z,14.60
2023-03-20T08:16:29.660Z,14.70
2023-03-20T08:19:01.464Z,14.70
2023-03-20T08:21:29.861Z,14.50
2023-03-20T08:23:57.823Z,14.50
2023-03-20T08:26:25.842Z,14.60
2023-03-20T08:28:53.469Z,14.60
2023-03-20T08:31:20.849Z,14.70
2023-03-20T08:33:48.800Z,14.70
2023-03-20T08:36:19.824Z,14.80
2023-03-20T08:38:49.184Z,15.00
2023-03-20T08:41:17.735Z,15.20
2023-03-20T08:43:45.177Z,15.20
2023-03-20T08:46:13.019Z,15.40
2023-03-20T08:48:40.656Z,15.70
2023-03-20T08:51:08.460Z,16.00
2023-03-20T08:53:36.990Z,16.10
2023-03-20T08:56:04.579Z,16.50
2023-03-20T08:58:31.978Z,16.90
2023-03-20T09:01:08.191Z,17.00
2023-03-20T09:03:36.467Z,16.80
2023-03-20T09:06:08.816Z,16.70
2023-03-20T09:08:36.650Z,16.60
2023-03-20T09:11:05.051Z,16.10
2023-03-20T09:13:32.438Z,16.00
2023-03-20T09:15:59.749Z,16.30
2023-03-20T09:18:27.409Z,16.30
2023-03-20T09:20:56.674Z,16.40
2023-03-20T09:23:24.357Z,16.40
2023-03-20T09:25:51.701Z,16.40
2023-03-20T09:28:19.185Z,16.80
2023-03-20T09:30:47.040Z,16.90
2023-03-20T09:33:15.100Z,16.60
2023-03-20T09:35:43.814Z,16.60
2023-03-20T09:38:12.538Z,16.90
2023-03-20T09:40:59.641Z,16.90
2023-03-20T09:43:45.031Z,17.10
2023-03-20T09:46:15.041Z,17.20
2023-03-20T09:48:58.273Z,17.60
2023-03-20T09:51:44.170Z,17.50
2023-03-20T09:54:24.578Z,17.70
2023-03-20T09:56:53.583Z,17.70
2023-03-20T09:59:21.444Z,17.10
2023-03-20T10:01:55.502Z,17.10
2023-03-20T10:04:28.906Z,17.20
2023-03-20T10:06:57.094Z,17.20
2023-03-20T10:09:31.965Z,17.00
2023-03-20T10:12:18.441Z,17.10
2023-03-20T10:15:00.552Z,17.10
2023-03-20T10:17:53.230Z,16.70
2023-03-20T10:20:37.714Z,16.60
2023-03-20T10:23:19.018Z,16.70
2023-03-20T10:25:52.467Z,16.70
2023-03-20T10:28:23.149Z,16.90
2023-03-20T10:31:13.893Z,16.80
2023-03-20T10:34:12.079Z,16.70
2023-03-20T10:37:17.042Z,16.00
2023-03-20T10:39:59.450Z,15.70
2023-03-20T10:42:31.538Z,15.50
2023-03-20T10:45:36.483Z,15.30
2023-03-20T10:48:13.815Z,15.40
2023-03-20T10:50:47.327Z,15.40
2023-03-20T10:53:41.764Z,15.20
2023-03-20T10:56:43.788Z,15.00
2023-03-20T10:59:17.172Z,15.00
2023-03-20T11:01:44.514Z,15.20
2023-03-20T11:04:11.959Z,15.30
2023-03-20T11:07:03.226Z,15.50
2023-03-20T11:09:31.521Z,15.60
2023-03-20T11:12:01.840Z,15.60
2023-03-20T11:14:39.328Z,15.60
2023-03-20T11:17:07.196Z,15.40
2023-03-20T11:19:37.288Z,15.20
2023-03-20T11:22:23.582Z,15.10
2023-03-20T11:25:02.014Z,15.10
2023-03-20T11:27:34.665Z,15.00
2023-03-20T11:30:07.688Z,15.10
2023-03-20T11:32:36.431Z,15.10
2023-03-20T11:35:15.136Z,14.90
2023-03-20T11:37:47.895Z,14.90
2023-03-20T11:40:35.056Z,14.80
2023-03-20T11:43:03.025Z,14.60
2023-03-20T11:45:39.683Z,14.50
2023-03-20T11:48:18.303Z,14.50
2023-03-20T11:51:03.384Z,14.50
2023-03-20T11:53:41.599Z,14.10
2023-03-20T11:56:13.445Z,13.80
2023-03-20T11:59:08.975Z,13.80
2023-03-20T12:01:52.657Z,13.80
2023-03-20T12:04:31.911Z,13.80
2023-03-20T12:07:14.638Z,13.90
2023-03-20T12:09:44.692Z,14.20
2023-03-20T12:12:36.798Z,14.50
2023-03-20T12:15:22.280Z,14.60
2023-03-20T12:17:55.524Z,14.70
2023-03-20T12:20:36.650Z,14.80
2023-03-20T12:23:12.332Z,15.00
2023-03-20T12:25:57.205Z,15.20
2023-03-20T12:28:36.775Z,15.30
2023-03-20T12:31:26.740Z,15.40
2023-03-20T12:34:38.462Z,15.40
2023-03-20T12:37:10.868Z,15.50
2023-03-20T12:39:47.280Z,15.60
2023-03-20T12:42:29.527Z,15.60
2023-03-20T12:45:09.686Z,15.50
2023-03-20T12:47:58.538Z,15.60
2023-03-20T12:50:40.964Z,15.40
2023-03-20T12:53:20.400Z,15.50
2023-03-20T12:56:19.640Z,16.10
2023-03-20T12:58:53.078Z,16.40
2023-03-20T13:01:21.907Z,16.70
2023-03-20T13:04:01.552Z,17.10
2023-03-20T13:06:41.306Z,17.40
2023-03-20T13:09:08.648Z,17.60
2023-03-20T13:11:42.206Z,17.30
2023-03-20T13:14:27.553Z,17.50
2023-03-20T13:17:32.530Z,18.10
2023-03-20T13:20:55.442Z,18.20
2023-03-20T13:23:28.566Z,18.10
2023-03-20T13:26:04.965Z,18.10
2023-03-20T13:28:55.246Z,18.30
2023-03-20T13:31:34.882Z,18.50
2023-03-20T13:34:26.072Z,18.40
2023-03-20T13:37:29.719Z,18.10
2023-03-20T13:40:06.374Z,18.00
2023-03-20T13:42:47.957Z,17.60
2023-03-20T13:45:25.645Z,17.30
2023-03-20T13:47:54.792Z,16.90
2023-03-20T13:50:46.216Z,16.70
2023-03-20T13:53:16.458Z,16.70
2023-03-20T13:56:12.529Z,16.90
2023-03-20T13:59:18.690Z,16.90
2023-03-20T14:02:09.410Z,17.10
2023-03-20T14:04:38.259Z,17.20
2023-03-20T14:07:35.157Z,17.20
2023-03-20T14:10:21.124Z,17.10
2023-03-20T14:12:56.399Z,17.40
2023-03-20T14:15:31.556Z,17.50
2023-03-20T14:18:03.587Z,17.60
2023-03-20T14:20:34.137Z,17.60
2023-03-20T14:23:02.133Z,17.30
2023-03-20T14:25:41.465Z,17.30
2023-03-20T14:28:11.870Z,17.10
2023-03-20T14:30:50.973Z,17.10
2023-03-20T14:33:18.838Z,16.90
2023-03-20T14:36:25.374Z,16.80
2023-03-20T14:39:02.902Z,16.80
2023-03-20T14:41:52.059Z,16.60
2023-03-20T14:44:31.484Z,16.50
2023-03-20T14:47:17.192Z,16.40
2023-03-20T14:50:10.135Z,16.20
2023-03-20T14:53:01.857Z,16.20
2023-03-20T14:55:32.560Z,15.90
2023-03-20T14:58:24.403Z,15.90
2023-03-20T15:00:51.969Z,16.10
2023-03-20T15:03:19.737Z,16.00
2023-03-20T15:05:48.136Z,16.00
2023-03-20T15:08:25.869Z,16.00
2023-03-20T15:10:58.791Z,15.90
2023-03-20T15:13:28.167Z,15.80
2023-03-20T15:16:07.209Z,15.90
2023-03-20T15:18:53.373Z,16.10
2023-03-20T15:21:41.652Z,16.20
2023-03-20T15:24:17.076Z,16.10
2023-03-20T15:26:44.890Z,16.10
2023-03-20T15:29:17.085Z,16.10
2023-03-20T15:31:44.866Z,16.00
2023-03-20T15:34:22.717Z,16.00
2023-03-20T15:36:51.929Z,16.00
2023-03-20T15:39:25.340Z,15.70
2023-03-20T15:41:56.055Z,15.50
2023-03-20T15:44:34.201Z,15.50
2023-03-20T15:47:01.426Z,15.40
2023-03-20T15:49:32.835Z,15.20
2023-03-20T15:52:07.368Z,15.20
2023-03-20T15:54:37.681Z,15.10
2023-03-20T15:57:05.658Z,15.00
2023-03-20T15:59:34.460Z,15.10
2023-03-20T16:02:03.695Z,15.10
2023-03-20T16:04:31.188Z,15.00
2023-03-20T16:07:01.028Z,15.00
2023-03-20T16:09:29.088Z,15.00
2023-03-20T16:11:59.465Z,15.00
2023-03-20T16:14:29.982Z,15.00
2023-03-20T16:16:59.941Z,15.00
2023-03-20T16:19:29.156Z,15.00
2023-03-20T16:22:10.178Z,15.00
2023-03-20T16:24:40.100Z,15.00
2023-03-20T16:27:10.695Z,15.00
2023-03-20T16:29:44.286Z,14.80
2023-03-20T16:32:38.144Z,14.70
2023-03-20T16:35:15.969Z,14.60
2023-03-20T16:37:54.136Z,14.60
2023-03-20T16:40:36.306Z,14.50
2023-03-20T16:43:14.612Z,14.50
2023-03-20T16:45:44.978Z,14.50
2023-03-20T16:48:12.244Z,14.50
2023-03-20T16:50:40.714Z,14.50
2023-03-20T16:53:31.212Z,14.50
2023-03-20T16:55:59.454Z,14.60
2023-03-20T16:58:31.741Z,14.50
2023-03-20T17:01:08.853Z,14.50
2023-03-20T17:03:43.655Z,14.50
2023-03-20T17:06:20.901Z,14.40
2023-03-20T17:08:53.965Z,14.30
2023-03-20T17:11:35.866Z,14.20
2023-03-20T17:14:06.105Z,14.10
2023-03-20T17:16:36.833Z,14.10
2023-03-20T17:19:14.540Z,14.00
2023-03-20T17:21:44.013Z,14.00
2023-03-20T17:24:12.879Z,14.00
2023-03-20T17:26:42.457Z,14.00
2023-03-20T17:29:12.512Z,14.00
2023-03-20T17:31:40.210Z,14.00
2023-03-20T17:34:07.611Z,14.10
2023-03-20T17:36:35.926Z,14.10
2023-03-20T17:39:03.165Z,14.00
2023-03-20T17:41:30.797Z,14.00
2023-03-20T17:44:00.663Z,13.90
2023-03-20T17:46:30.751Z,13.80
2023-03-20T17:49:13.176Z,13.70
2023-03-20T17:51:41.078Z,13.60
2023-03-20T17:54:08.757Z,13.40
2023-03-20T17:56:36.310Z,13.40
2023-03-20T17:59:06.327Z,13.30
2023-03-20T18:01:33.736Z,13.30
2023-03-20T18:04:01.032Z,13.20
2023-03-20T18:06:33.405Z,13.10
2023-03-20T18:09:01.995Z,13.10
2023-03-20T18:11:29.514Z,13.00
2023-03-20T18:13:56.981Z,13.00
2023-03-20T18:16:26.827Z,13.00
2023-03-20T18:18:55.037Z,13.00
2023-03-20T18:21:22.640Z,13.00
2023-03-20T18:23:50.231Z,13.10
2023-03-20T18:26:26.972Z,13.10
2023-03-20T18:28:56.324Z,13.10
2023-03-20T18:31:23.644Z,13.10
2023-03-20T18:33:52.671Z,13.20
2023-03-20T18:36:22.764Z,13.20
2023-03-20T18:38:51.741Z,13.20
2023-03-20T18:41:19.188Z,13.20
2023-03-20T18:43:46.881Z,13.20
2023-03-20T18:46:23.021Z,13.20
2023-03-20T18:48:52.311Z,13.20
2023-03-20T18:51:21.043Z,13.30
2023-03-20T18:53:48.438Z,13.30
2023-03-20T18:56:21.493Z,13.30
2023-03-20T18:58:49.371Z,13.40
2023-03-20T19:01:17.495Z,13.40
2023-03-20T19:03:46.586Z,13.30
2023-03-20T19:06:16.657Z,13.30
2023-03-20T19:08:45.141Z,13.30
2023-03-20T19:11:17.812Z,13.30
2023-03-20T19:13:49.768Z,13.30
2023-03-20T19:16:27.000Z,13.20
2023-03-20T19:18:56.161Z,13.20
2023-03-20T19:21:26.655Z,13.20
2023-03-20T19:23:55.417Z,13.20
2023-03-20T19:26:24.836Z,13.20
2023-03-20T19:28:54.080Z,13.20
2023-03-20T19:31:23.422Z,13.20
2023-03-20T19:33:51.127Z,13.20
2023-03-20T19:36:31.930Z,13.20
2023-03-20T19:39:01.884Z,13.20
2023-03-20T19:41:29.805Z,13.20
2023-03-20T19:43:58.440Z,13.20
2023-03-20T19:46:43.210Z,13.20
2023-03-20T19:49:19.612Z,13.20
2023-03-20T19:51:48.504Z,13.30
2023-03-20T19:54:16.477Z,13.30
2023-03-20T19:56:43.870Z,13.30
2023-03-20T19:59:11.692Z,13.30
2023-03-20T20:01:39.215Z,13.30
2023-03-20T20:04:06.715Z,13.30
2023-03-20T20:06:34.280Z,13.20
2023-03-20T20:09:03.250Z,13.20
2023-03-20T20:11:30.787Z,13.20
2023-03-20T20:14:06.790Z,13.20
2023-03-20T20:16:40.288Z,13.20
2023-03-20T20:19:08.145Z,13.20
2023-03-20T20:24:23.368Z,13.20
2023-03-20T20:26:56.877Z,13.20
2023-03-20T20:29:30.333Z,13.20
2023-03-20T20:31:59.538Z,13.20
2023-03-20T20:40:23.724Z,13.20
2023-03-20T20:42:54.461Z,13.20
2023-03-20T20:45:29.233Z,13.20
2023-03-20T20:47:58.037Z,13.20
2023-03-20T20:50:28.674Z,13.30
2023-03-20T20:53:07.330Z,13.30
2023-03-20T20:55:38.404Z,13.40
2023-03-20T20:58:06.160Z,13.40
2023-03-20T21:00:48.653Z,13.40
2023-03-20T21:03:18.758Z,13.40
2023-03-20T21:05:46.219Z,13.40
2023-03-20T21:08:18.668Z,13.40
2023-03-20T21:10:46.655Z,13.40
2023-03-20T21:13:23.018Z,13.40
2023-03-20T21:15:58.812Z,13.40
2023-03-20T21:18:26.618Z,13.40
2023-03-20T21:20:56.237Z,13.40
2023-03-20T21:23:23.496Z,13.30
2023-03-20T21:25:50.967Z,13.30
2023-03-20T21:28:18.380Z,13.30
2023-03-20T21:31:12.645Z,13.30
2023-03-20T21:33:36.114Z,13.30
2023-03-20T21:36:04.407Z,13.30
2023-03-20T21:39:06.968Z,13.30
2023-03-20T21:41:20.550Z,13.30
2023-03-20T21:43:47.924Z,13.30
2023-03-20T21:46:55.379Z,13.30
2023-03-20T21:58:10.387Z,13.40
2023-03-20T22:03:10.934Z,13.40
2023-03-20T22:09:27.391Z,13.30
2023-03-20T22:17:45.656Z,13.30
2023-03-20T22:28:49.855Z,13.30
2023-03-20T22:31:36.760Z,13.30
2023-03-20T22:40:10.905Z,13.40
2023-03-20T22:45:02.692Z,13.40
2023-03-20T22:47:31.564Z,13.40
2023-03-20T22:49:59.567Z,13.40
2023-03-20T22:52:38.342Z,13.30
2023-03-20T22:55:13.471Z,13.30
2023-03-20T22:57:47.638Z,13.40
2023-03-20T23:00:18.788Z,13.40
2023-03-20T23:02:47.465Z,13.40
2023-03-20T23:05:14.863Z,13.40
2023-03-20T23:07:42.328Z,13.40
2023-03-20T23:10:13.393Z,13.40
2023-03-20T23:12:43.890Z,13.40
2023-03-20T23:15:11.890Z,13.40
2023-03-20T23:17:39.373Z,13.30
2023-03-20T23:20:12.596Z,13.30
2023-03-20T23:22:41.508Z,13.20
2023-03-20T23:25:18.662Z,13.10
2023-03-20T23:27:54.758Z,13.10
2023-03-20T23:30:25.334Z,13.00
2023-03-20T23:32:54.827Z,13.00
2023-03-20T23:35:22.109Z,13.00
2023-03-20T23:37:49.368Z,12.90
2023-03-20T23:40:16.965Z,12.90
2023-03-20T23:42:44.295Z,12.90
2023-03-20T23:45:19.919Z,12.90
2023-03-20T23:47:49.714Z,12.90
2023-03-20T23:50:30.319Z,12.90
2023-03-20T23:53:13.096Z,12.90
2023-03-20T23:55:46.292Z,12.90
2023-03-20T23:58:14.041Z,12.90
